sensor_id;sensor_type;location;lat;lon;timestamp;P1;durP1;ratioP1;P2;durP2;ratioP2
53652;SDS011;39553;52.954;5.932;2023-08-08T00:02:20;3.72;;;2.08;;
53652;SDS011;39553;52.954;5.932;2023-08-08T00:04:48;4.57;;;2.35;;
53652;SDS011;39553;52.954;5.932;2023-08-08T00:07:15;4.65;;;2.85;;
53652;SDS011;39553;52.954;5.932;2023-08-08T00:09:41;3.65;;;1.98;;
53652;SDS011;39553;52.954;5.932;2023-08-08T00:12:07;5.28;;;2.67;;
53652;SDS011;39553;52.954;5.932;2023-08-08T00:14:33;5.80;;;2.42;;
53652;SDS011;39553;52.954;5.932;2023-08-08T00:16:59;5.30;;;2.67;;
53652;SDS011;39553;52.954;5.932;2023-08-08T00:19:26;4.50;;;2.50;;
53652;SDS011;39553;52.954;5.932;2023-08-08T00:21:52;6.80;;;2.92;;
53652;SDS011;39553;52.954;5.932;2023-08-08T00:24:18;6.30;;;2.20;;
53652;SDS011;39553;52.954;5.932;2023-08-08T00:26:45;6.95;;;2.70;;
53652;SDS011;39553;52.954;5.932;2023-08-08T00:29:13;6.47;;;2.60;;
53652;SDS011;39553;52.954;5.932;2023-08-08T00:31:39;4.10;;;2.10;;
53652;SDS011;39553;52.954;5.932;2023-08-08T00:34:05;5.93;;;3.20;;
53652;SDS011;39553;52.954;5.932;2023-08-08T00:36:31;5.88;;;3.03;;
53652;SDS011;39553;52.954;5.932;2023-08-08T00:38:56;5.65;;;2.58;;
53652;SDS011;39553;52.954;5.932;2023-08-08T00:41:25;3.90;;;2.22;;
53652;SDS011;39553;52.954;5.932;2023-08-08T00:43:52;3.15;;;2.28;;
53652;SDS011;39553;52.954;5.932;2023-08-08T00:46:18;4.43;;;2.28;;
53652;SDS011;39553;52.954;5.932;2023-08-08T00:48:46;4.05;;;2.58;;
53652;SDS011;39553;52.954;5.932;2023-08-08T00:51:13;5.03;;;2.80;;
53652;SDS011;39553;52.954;5.932;2023-08-08T00:53:39;7.80;;;3.00;;
53652;SDS011;39553;52.954;5.932;2023-08-08T00:56:05;4.38;;;2.83;;
53652;SDS011;39553;52.954;5.932;2023-08-08T00:58:31;4.13;;;2.42;;
53652;SDS011;39553;52.954;5.932;2023-08-08T01:00:57;4.97;;;3.22;;
53652;SDS011;39553;52.954;5.932;2023-08-08T01:03:25;6.50;;;2.97;;
53652;SDS011;39553;52.954;5.932;2023-08-08T01:08:42;7.85;;;2.63;;
53652;SDS011;39553;52.954;5.932;2023-08-08T01:11:08;5.72;;;2.55;;
53652;SDS011;39553;52.954;5.932;2023-08-08T01:13:34;4.93;;;2.80;;
53652;SDS011;39553;52.954;5.932;2023-08-08T01:16:02;6.90;;;3.03;;
53652;SDS011;39553;52.954;5.932;2023-08-08T01:18:30;5.60;;;3.03;;
53652;SDS011;39553;52.954;5.932;2023-08-08T01:20:57;6.88;;;2.80;;
53652;SDS011;39553;52.954;5.932;2023-08-08T01:23:30;10.23;;;3.47;;
53652;SDS011;39553;52.954;5.932;2023-08-08T01:25:59;6.32;;;2.90;;
53652;SDS011;39553;52.954;5.932;2023-08-08T01:28:25;4.97;;;2.30;;
53652;SDS011;39553;52.954;5.932;2023-08-08T01:30:51;8.38;;;2.78;;
53652;SDS011;39553;52.954;5.932;2023-08-08T01:33:19;8.02;;;3.00;;
53652;SDS011;39553;52.954;5.932;2023-08-08T01:35:46;5.95;;;3.38;;
53652;SDS011;39553;52.954;5.932;2023-08-08T01:38:46;7.18;;;2.70;;
53652;SDS011;39553;52.954;5.932;2023-08-08T01:41:05;6.35;;;2.72;;
53652;SDS011;39553;52.954;5.932;2023-08-08T01:43:33;4.88;;;2.90;;
53652;SDS011;39553;52.954;5.932;2023-08-08T01:45:59;9.38;;;3.03;;
53652;SDS011;39553;52.954;5.932;2023-08-08T01:48:27;7.25;;;2.85;;
53652;SDS011;39553;52.954;5.932;2023-08-08T01:50:53;6.72;;;2.65;;
53652;SDS011;39553;52.954;5.932;2023-08-08T01:53:19;8.90;;;2.80;;
53652;SDS011;39553;52.954;5.932;2023-08-08T01:55:45;5.78;;;2.92;;
53652;SDS011;39553;52.954;5.932;2023-08-08T01:58:11;5.65;;;2.60;;
53652;SDS011;39553;52.954;5.932;2023-08-08T02:00:38;4.22;;;2.63;;
53652;SDS011;39553;52.954;5.932;2023-08-08T02:03:06;9.63;;;2.67;;
53652;SDS011;39553;52.954;5.932;2023-08-08T02:05:32;9.52;;;2.45;;
53652;SDS011;39553;52.954;5.932;2023-08-08T02:07:57;8.05;;;2.50;;
53652;SDS011;39553;52.954;5.932;2023-08-08T02:10:23;14.13;;;2.40;;
53652;SDS011;39553;52.954;5.932;2023-08-08T02:12:49;5.43;;;1.90;;
53652;SDS011;39553;52.954;5.932;2023-08-08T02:15:15;6.45;;;2.22;;
53652;SDS011;39553;52.954;5.932;2023-08-08T02:17:40;5.47;;;2.20;;
53652;SDS011;39553;52.954;5.932;2023-08-08T02:20:06;4.10;;;1.70;;
53652;SDS011;39553;52.954;5.932;2023-08-08T02:22:33;9.60;;;2.25;;
53652;SDS011;39553;52.954;5.932;2023-08-08T02:24:59;11.85;;;2.38;;
53652;SDS011;39553;52.954;5.932;2023-08-08T02:27:25;8.70;;;2.30;;
53652;SDS011;39553;52.954;5.932;2023-08-08T02:29:51;9.13;;;2.40;;
53652;SDS011;39553;52.954;5.932;2023-08-08T02:32:18;6.30;;;2.88;;
53652;SDS011;39553;52.954;5.932;2023-08-08T02:34:45;7.88;;;2.05;;
53652;SDS011;39553;52.954;5.932;2023-08-08T02:37:12;8.98;;;1.67;;
53652;SDS011;39553;52.954;5.932;2023-08-08T02:39:39;3.63;;;1.65;;
53652;SDS011;39553;52.954;5.932;2023-08-08T02:42:05;9.82;;;2.60;;
53652;SDS011;39553;52.954;5.932;2023-08-08T02:44:32;8.27;;;1.67;;
53652;SDS011;39553;52.954;5.932;2023-08-08T02:46:59;5.95;;;2.20;;
53652;SDS011;39553;52.954;5.932;2023-08-08T02:49:26;6.10;;;2.38;;
53652;SDS011;39553;52.954;5.932;2023-08-08T02:51:53;5.38;;;1.90;;
53652;SDS011;39553;52.954;5.932;2023-08-08T02:54:20;7.30;;;2.10;;
53652;SDS011;39553;52.954;5.932;2023-08-08T02:56:48;5.32;;;1.92;;
53652;SDS011;39553;52.954;5.932;2023-08-08T02:59:14;4.43;;;1.50;;
53652;SDS011;39553;52.954;5.932;2023-08-08T03:01:41;4.22;;;1.63;;
53652;SDS011;39553;52.954;5.932;2023-08-08T03:04:07;5.05;;;1.88;;
53652;SDS011;39553;52.954;5.932;2023-08-08T03:06:35;6.57;;;1.63;;
53652;SDS011;39553;52.954;5.932;2023-08-08T03:09:01;4.43;;;1.90;;
53652;SDS011;39553;52.954;5.932;2023-08-08T03:11:28;4.65;;;1.80;;
53652;SDS011;39553;52.954;5.932;2023-08-08T03:13:55;6.07;;;1.50;;
53652;SDS011;39553;52.954;5.932;2023-08-08T03:16:23;4.65;;;1.85;;
53652;SDS011;39553;52.954;5.932;2023-08-08T03:18:50;4.10;;;1.40;;
53652;SDS011;39553;52.954;5.932;2023-08-08T03:21:17;9.07;;;2.00;;
53652;SDS011;39553;52.954;5.932;2023-08-08T03:23:44;6.03;;;2.03;;
53652;SDS011;39553;52.954;5.932;2023-08-08T03:26:11;7.80;;;1.92;;
53652;SDS011;39553;52.954;5.932;2023-08-08T03:28:37;7.10;;;1.83;;
53652;SDS011;39553;52.954;5.932;2023-08-08T03:31:03;7.38;;;1.85;;
53652;SDS011;39553;52.954;5.932;2023-08-08T03:33:29;7.45;;;1.70;;
53652;SDS011;39553;52.954;5.932;2023-08-08T03:35:54;10.73;;;2.03;;
53652;SDS011;39553;52.954;5.932;2023-08-08T03:38:21;6.68;;;1.60;;
53652;SDS011;39553;52.954;5.932;2023-08-08T03:40:47;7.93;;;1.70;;
53652;SDS011;39553;52.954;5.932;2023-08-08T03:43:14;4.18;;;1.90;;
53652;SDS011;39553;52.954;5.932;2023-08-08T03:45:40;10.13;;;2.28;;
53652;SDS011;39553;52.954;5.932;2023-08-08T03:48:06;5.15;;;2.03;;
53652;SDS011;39553;52.954;5.932;2023-08-08T03:50:33;10.70;;;2.00;;
53652;SDS011;39553;52.954;5.932;2023-08-08T03:52:59;5.50;;;1.85;;
53652;SDS011;39553;52.954;5.932;2023-08-08T03:55:25;6.78;;;1.98;;
53652;SDS011;39553;52.954;5.932;2023-08-08T03:57:51;8.73;;;2.13;;
53652;SDS011;39553;52.954;5.932;2023-08-08T04:00:17;5.80;;;1.85;;
53652;SDS011;39553;52.954;5.932;2023-08-08T04:02:43;5.40;;;1.83;;
53652;SDS011;39553;52.954;5.932;2023-08-08T04:05:09;4.90;;;2.00;;
53652;SDS011;39553;52.954;5.932;2023-08-08T04:07:35;11.20;;;1.90;;
53652;SDS011;39553;52.954;5.932;2023-08-08T04:10:01;10.00;;;2.40;;
53652;SDS011;39553;52.954;5.932;2023-08-08T04:12:28;5.97;;;1.88;;
53652;SDS011;39553;52.954;5.932;2023-08-08T04:14:54;9.48;;;2.17;;
53652;SDS011;39553;52.954;5.932;2023-08-08T04:17:20;9.35;;;2.10;;
53652;SDS011;39553;52.954;5.932;2023-08-08T04:19:46;9.07;;;1.98;;
53652;SDS011;39553;52.954;5.932;2023-08-08T04:22:13;8.27;;;1.58;;
53652;SDS011;39553;52.954;5.932;2023-08-08T04:24:40;5.35;;;1.70;;
53652;SDS011;39553;52.954;5.932;2023-08-08T04:27:06;4.07;;;2.10;;
53652;SDS011;39553;52.954;5.932;2023-08-08T04:29:32;3.22;;;1.33;;
53652;SDS011;39553;52.954;5.932;2023-08-08T04:31:59;9.10;;;1.70;;
53652;SDS011;39553;52.954;5.932;2023-08-08T04:34:25;4.47;;;1.67;;
53652;SDS011;39553;52.954;5.932;2023-08-08T04:36:51;3.42;;;1.65;;
53652;SDS011;39553;52.954;5.932;2023-08-08T04:39:17;6.78;;;1.40;;
53652;SDS011;39553;52.954;5.932;2023-08-08T04:41:43;7.40;;;1.73;;
53652;SDS011;39553;52.954;5.932;2023-08-08T04:44:09;6.13;;;1.52;;
53652;SDS011;39553;52.954;5.932;2023-08-08T04:46:35;4.60;;;1.65;;
53652;SDS011;39553;52.954;5.932;2023-08-08T04:49:01;5.18;;;2.08;;
53652;SDS011;39553;52.954;5.932;2023-08-08T04:51:27;11.45;;;2.05;;
53652;SDS011;39553;52.954;5.932;2023-08-08T04:53:53;5.63;;;1.83;;
53652;SDS011;39553;52.954;5.932;2023-08-08T04:56:20;6.38;;;1.88;;
53652;SDS011;39553;52.954;5.932;2023-08-08T04:58:46;5.15;;;1.75;;
53652;SDS011;39553;52.954;5.932;2023-08-08T05:01:13;5.10;;;1.50;;
53652;SDS011;39553;52.954;5.932;2023-08-08T05:03:40;3.63;;;2.17;;
53652;SDS011;39553;52.954;5.932;2023-08-08T05:06:07;6.50;;;1.83;;
53652;SDS011;39553;52.954;5.932;2023-08-08T05:08:33;7.13;;;1.85;;
53652;SDS011;39553;52.954;5.932;2023-08-08T05:11:00;3.22;;;1.30;;
53652;SDS011;39553;52.954;5.932;2023-08-08T05:13:26;4.88;;;1.70;;
53652;SDS011;39553;52.954;5.932;2023-08-08T05:15:54;7.55;;;2.00;;
53652;SDS011;39553;52.954;5.932;2023-08-08T05:18:20;4.43;;;1.33;;
53652;SDS011;39553;52.954;5.932;2023-08-08T05:20:46;4.05;;;1.80;;
53652;SDS011;39553;52.954;5.932;2023-08-08T05:23:12;6.00;;;1.50;;
53652;SDS011;39553;52.954;5.932;2023-08-08T05:25:39;5.43;;;1.85;;
53652;SDS011;39553;52.954;5.932;2023-08-08T05:28:05;7.28;;;2.53;;
53652;SDS011;39553;52.954;5.932;2023-08-08T05:30:31;3.33;;;1.88;;
53652;SDS011;39553;52.954;5.932;2023-08-08T05:32:58;9.38;;;2.35;;
53652;SDS011;39553;52.954;5.932;2023-08-08T05:35:24;5.95;;;1.63;;
53652;SDS011;39553;52.954;5.932;2023-08-08T05:37:50;3.65;;;1.83;;
53652;SDS011;39553;52.954;5.932;2023-08-08T05:40:16;8.30;;;2.13;;
53652;SDS011;39553;52.954;5.932;2023-08-08T05:42:43;7.57;;;2.22;;
53652;SDS011;39553;52.954;5.932;2023-08-08T05:45:09;6.57;;;1.85;;
53652;SDS011;39553;52.954;5.932;2023-08-08T05:47:35;4.65;;;1.88;;
53652;SDS011;39553;52.954;5.932;2023-08-08T05:50:01;7.45;;;1.48;;
53652;SDS011;39553;52.954;5.932;2023-08-08T05:52:28;9.43;;;2.10;;
53652;SDS011;39553;52.954;5.932;2023-08-08T05:54:55;3.90;;;1.70;;
53652;SDS011;39553;52.954;5.932;2023-08-08T05:57:24;8.00;;;2.30;;
53652;SDS011;39553;52.954;5.932;2023-08-08T05:59:50;4.03;;;1.70;;
53652;SDS011;39553;52.954;5.932;2023-08-08T06:02:16;9.85;;;1.75;;
53652;SDS011;39553;52.954;5.932;2023-08-08T06:04:42;3.63;;;1.60;;
53652;SDS011;39553;52.954;5.932;2023-08-08T06:07:08;7.82;;;1.80;;
53652;SDS011;39553;52.954;5.932;2023-08-08T06:09:35;6.28;;;1.50;;
53652;SDS011;39553;52.954;5.932;2023-08-08T06:12:02;8.25;;;1.80;;
53652;SDS011;39553;52.954;5.932;2023-08-08T06:14:30;5.97;;;1.73;;
53652;SDS011;39553;52.954;5.932;2023-08-08T06:16:56;8.77;;;1.60;;
53652;SDS011;39553;52.954;5.932;2023-08-08T06:19:22;3.88;;;1.38;;
53652;SDS011;39553;52.954;5.932;2023-08-08T06:21:48;5.30;;;1.60;;
53652;SDS011;39553;52.954;5.932;2023-08-08T06:24:15;7.55;;;1.60;;
53652;SDS011;39553;52.954;5.932;2023-08-08T06:26:41;5.65;;;1.77;;
53652;SDS011;39553;52.954;5.932;2023-08-08T06:29:07;6.05;;;1.45;;
53652;SDS011;39553;52.954;5.932;2023-08-08T06:31:33;5.20;;;1.42;;
53652;SDS011;39553;52.954;5.932;2023-08-08T06:33:59;9.00;;;1.90;;
53652;SDS011;39553;52.954;5.932;2023-08-08T06:36:25;3.13;;;1.27;;
53652;SDS011;39553;52.954;5.932;2023-08-08T06:38:51;4.00;;;1.83;;
53652;SDS011;39553;52.954;5.932;2023-08-08T06:41:17;6.35;;;1.50;;
53652;SDS011;39553;52.954;5.932;2023-08-08T06:43:44;8.30;;;1.80;;
53652;SDS011;39553;52.954;5.932;2023-08-08T06:46:10;5.68;;;1.52;;
53652;SDS011;39553;52.954;5.932;2023-08-08T06:48:36;8.15;;;2.00;;
53652;SDS011;39553;52.954;5.932;2023-08-08T06:51:02;7.78;;;1.30;;
53652;SDS011;39553;52.954;5.932;2023-08-08T06:53:28;4.70;;;2.00;;
53652;SDS011;39553;52.954;5.932;2023-08-08T06:55:54;5.03;;;1.48;;
53652;SDS011;39553;52.954;5.932;2023-08-08T06:58:20;3.78;;;0.93;;
53652;SDS011;39553;52.954;5.932;2023-08-08T07:00:46;6.57;;;1.88;;
53652;SDS011;39553;52.954;5.932;2023-08-08T07:03:12;6.60;;;1.83;;
53652;SDS011;39553;52.954;5.932;2023-08-08T07:05:38;6.45;;;1.73;;
53652;SDS011;39553;52.954;5.932;2023-08-08T07:08:05;3.78;;;1.38;;
53652;SDS011;39553;52.954;5.932;2023-08-08T07:10:31;4.97;;;1.50;;
53652;SDS011;39553;52.954;5.932;2023-08-08T07:12:57;7.03;;;1.63;;
53652;SDS011;39553;52.954;5.932;2023-08-08T07:15:23;7.63;;;1.40;;
53652;SDS011;39553;52.954;5.932;2023-08-08T07:17:49;11.95;;;2.35;;
53652;SDS011;39553;52.954;5.932;2023-08-08T07:20:15;5.45;;;1.20;;
53652;SDS011;39553;52.954;5.932;2023-08-08T07:22:43;3.17;;;1.48;;
53652;SDS011;39553;52.954;5.932;2023-08-08T07:25:09;5.50;;;1.98;;
53652;SDS011;39553;52.954;5.932;2023-08-08T07:27:36;9.23;;;1.83;;
53652;SDS011;39553;52.954;5.932;2023-08-08T07:30:03;4.07;;;1.23;;
53652;SDS011;39553;52.954;5.932;2023-08-08T07:32:29;1.92;;;1.02;;
53652;SDS011;39553;52.954;5.932;2023-08-08T07:34:55;6.00;;;1.33;;
53652;SDS011;39553;52.954;5.932;2023-08-08T07:37:21;3.22;;;1.20;;
53652;SDS011;39553;52.954;5.932;2023-08-08T07:39:50;9.32;;;1.58;;
53652;SDS011;39553;52.954;5.932;2023-08-08T07:42:19;5.40;;;1.08;;
53652;SDS011;39553;52.954;5.932;2023-08-08T07:44:45;3.65;;;1.45;;
53652;SDS011;39553;52.954;5.932;2023-08-08T07:47:11;5.43;;;1.90;;
53652;SDS011;39553;52.954;5.932;2023-08-08T07:49:37;4.60;;;1.10;;
53652;SDS011;39553;52.954;5.932;2023-08-08T07:52:03;7.53;;;1.63;;
53652;SDS011;39553;52.954;5.932;2023-08-08T07:54:29;5.28;;;1.83;;
53652;SDS011;39553;52.954;5.932;2023-08-08T07:56:55;6.50;;;1.45;;
53652;SDS011;39553;52.954;5.932;2023-08-08T07:59:21;5.35;;;1.73;;
53652;SDS011;39553;52.954;5.932;2023-08-08T08:01:47;5.38;;;1.40;;
53652;SDS011;39553;52.954;5.932;2023-08-08T08:04:13;5.20;;;2.03;;
53652;SDS011;39553;52.954;5.932;2023-08-08T08:06:40;1.40;;;0.90;;
53652;SDS011;39553;52.954;5.932;2023-08-08T08:09:06;6.95;;;1.48;;
53652;SDS011;39553;52.954;5.932;2023-08-08T08:11:33;2.97;;;0.95;;
53652;SDS011;39553;52.954;5.932;2023-08-08T08:13:59;3.63;;;1.63;;
53652;SDS011;39553;52.954;5.932;2023-08-08T08:16:25;5.10;;;2.17;;
53652;SDS011;39553;52.954;5.932;2023-08-08T08:18:51;4.22;;;1.38;;
53652;SDS011;39553;52.954;5.932;2023-08-08T08:21:17;9.50;;;1.58;;
53652;SDS011;39553;52.954;5.932;2023-08-08T08:23:43;4.75;;;1.65;;
53652;SDS011;39553;52.954;5.932;2023-08-08T08:26:09;3.50;;;1.35;;
53652;SDS011;39553;52.954;5.932;2023-08-08T08:28:36;5.15;;;1.45;;
53652;SDS011;39553;52.954;5.932;2023-08-08T08:31:05;3.83;;;1.40;;
53652;SDS011;39553;52.954;5.932;2023-08-08T08:33:32;4.70;;;1.48;;
53652;SDS011;39553;52.954;5.932;2023-08-08T08:35:58;8.15;;;1.42;;
53652;SDS011;39553;52.954;5.932;2023-08-08T08:38:24;8.35;;;1.95;;
53652;SDS011;39553;52.954;5.932;2023-08-08T08:40:50;8.32;;;1.55;;
53652;SDS011;39553;52.954;5.932;2023-08-08T08:43:19;6.13;;;1.63;;
53652;SDS011;39553;52.954;5.932;2023-08-08T08:45:48;5.15;;;1.30;;
53652;SDS011;39553;52.954;5.932;2023-08-08T08:48:16;8.73;;;1.77;;
53652;SDS011;39553;52.954;5.932;2023-08-08T08:50:42;5.43;;;1.13;;
53652;SDS011;39553;52.954;5.932;2023-08-08T08:53:10;3.90;;;1.50;;
53652;SDS011;39553;52.954;5.932;2023-08-08T08:55:37;6.68;;;1.77;;
53652;SDS011;39553;52.954;5.932;2023-08-08T08:58:03;8.00;;;2.88;;
53652;SDS011;39553;52.954;5.932;2023-08-08T09:00:30;5.53;;;1.60;;
53652;SDS011;39553;52.954;5.932;2023-08-08T09:02:56;4.80;;;1.35;;
53652;SDS011;39553;52.954;5.932;2023-08-08T09:05:22;6.32;;;1.05;;
53652;SDS011;39553;52.954;5.932;2023-08-08T09:07:50;8.43;;;1.38;;
53652;SDS011;39553;52.954;5.932;2023-08-08T09:10:16;5.38;;;1.48;;
53652;SDS011;39553;52.954;5.932;2023-08-08T09:12:43;7.70;;;1.88;;
53652;SDS011;39553;52.954;5.932;2023-08-08T09:15:10;5.22;;;1.48;;
53652;SDS011;39553;52.954;5.932;2023-08-08T09:17:40;5.32;;;1.23;;
53652;SDS011;39553;52.954;5.932;2023-08-08T09:20:07;5.10;;;1.10;;
53652;SDS011;39553;52.954;5.932;2023-08-08T09:22:36;3.55;;;1.65;;
53652;SDS011;39553;52.954;5.932;2023-08-08T09:25:02;10.32;;;1.65;;
53652;SDS011;39553;52.954;5.932;2023-08-08T09:27:29;5.70;;;1.30;;
53652;SDS011;39553;52.954;5.932;2023-08-08T09:29:58;5.30;;;1.02;;
53652;SDS011;39553;52.954;5.932;2023-08-08T09:32:28;2.83;;;1.02;;
53652;SDS011;39553;52.954;5.932;2023-08-08T09:34:55;8.10;;;1.55;;
53652;SDS011;39553;52.954;5.932;2023-08-08T09:37:22;2.22;;;1.02;;
53652;SDS011;39553;52.954;5.932;2023-08-08T09:39:55;6.38;;;1.58;;
53652;SDS011;39553;52.954;5.932;2023-08-08T09:42:21;4.35;;;1.52;;
53652;SDS011;39553;52.954;5.932;2023-08-08T09:44:47;4.00;;;1.38;;
53652;SDS011;39553;52.954;5.932;2023-08-08T09:47:14;6.05;;;1.15;;
53652;SDS011;39553;52.954;5.932;2023-08-08T09:49:40;8.05;;;1.42;;
53652;SDS011;39553;52.954;5.932;2023-08-08T09:52:07;6.32;;;1.50;;
53652;SDS011;39553;52.954;5.932;2023-08-08T09:54:33;3.90;;;1.35;;
53652;SDS011;39553;52.954;5.932;2023-08-08T09:56:59;6.40;;;1.33;;
53652;SDS011;39553;52.954;5.932;2023-08-08T09:59:25;4.63;;;1.33;;
53652;SDS011;39553;52.954;5.932;2023-08-08T10:01:51;8.98;;;1.50;;
53652;SDS011;39553;52.954;5.932;2023-08-08T10:04:18;5.57;;;1.65;;
53652;SDS011;39553;52.954;5.932;2023-08-08T10:06:44;2.92;;;1.15;;
53652;SDS011;39553;52.954;5.932;2023-08-08T10:09:10;5.82;;;1.55;;
53652;SDS011;39553;52.954;5.932;2023-08-08T10:11:37;3.72;;;1.20;;
53652;SDS011;39553;52.954;5.932;2023-08-08T10:14:03;3.85;;;1.20;;
53652;SDS011;39553;52.954;5.932;2023-08-08T10:16:31;6.38;;;1.45;;
53652;SDS011;39553;52.954;5.932;2023-08-08T10:18:59;5.70;;;1.50;;
53652;SDS011;39553;52.954;5.932;2023-08-08T10:21:26;6.25;;;1.80;;
53652;SDS011;39553;52.954;5.932;2023-08-08T10:24:32;4.68;;;2.08;;
53652;SDS011;39553;52.954;5.932;2023-08-08T10:26:56;7.68;;;1.65;;
53652;SDS011;39553;52.954;5.932;2023-08-08T10:29:25;8.10;;;1.55;;
53652;SDS011;39553;52.954;5.932;2023-08-08T10:32:02;2.03;;;1.10;;
53652;SDS011;39553;52.954;5.932;2023-08-08T10:34:38;4.50;;;1.92;;
53652;SDS011;39553;52.954;5.932;2023-08-08T10:37:05;7.07;;;1.58;;
53652;SDS011;39553;52.954;5.932;2023-08-08T10:39:34;3.38;;;1.23;;
53652;SDS011;39553;52.954;5.932;2023-08-08T10:42:02;5.95;;;1.35;;
53652;SDS011;39553;52.954;5.932;2023-08-08T10:44:29;6.97;;;1.73;;
53652;SDS011;39553;52.954;5.932;2023-08-08T10:46:55;5.18;;;2.33;;
